createdAt,value
2022-12-14T00:00:27.903Z,36.00
2022-12-14T00:01:00.405Z,34.40
2022-12-14T00:01:32.997Z,34.10
2022-12-14T00:02:05.593Z,34.30
2022-12-14T00:02:38.091Z,35.10
2022-12-14T00:03:10.664Z,31.70
2022-12-14T00:03:42.942Z,32.50
2022-12-14T00:04:15.494Z,32.50
2022-12-14T00:04:47.893Z,26.70
2022-12-14T00:05:20.388Z,28.70
2022-12-14T00:05:52.865Z,31.40
2022-12-14T00:06:25.296Z,33.20
2022-12-14T00:06:57.744Z,32.20
2022-12-14T00:07:30.206Z,30.90
2022-12-14T00:08:02.707Z,32.60
2022-12-14T00:08:41.325Z,33.50
2022-12-14T00:09:07.852Z,31.30
2022-12-14T00:09:40.267Z,30.20
2022-12-14T00:10:12.898Z,33.00
2022-12-14T00:10:45.442Z,32.00
2022-12-14T00:11:17.982Z,31.70
2022-12-14T00:11:50.446Z,36.70
2022-12-14T00:12:22.896Z,35.30
2022-12-14T00:12:55.425Z,31.70
2022-12-14T00:13:34.641Z,36.50
2022-12-14T00:14:07.143Z,35.50
2022-12-14T00:14:39.577Z,31.50
2022-12-14T00:15:12.035Z,26.90
2022-12-14T00:15:44.575Z,27.00
2022-12-14T00:16:17.207Z,27.40
2022-12-14T00:16:49.616Z,28.60
2022-12-14T00:17:22.227Z,29.20
2022-12-14T00:17:54.859Z,24.30
2022-12-14T00:18:27.671Z,28.20
2022-12-14T00:18:59.800Z,28.40
2022-12-14T00:19:32.234Z,26.40
2022-12-14T00:20:04.771Z,30.10
2022-12-14T00:20:37.278Z,30.90
2022-12-14T00:21:10.139Z,27.70
2022-12-14T00:21:42.676Z,31.80
2022-12-14T00:22:15.341Z,33.50
2022-12-14T00:22:47.905Z,30.60
2022-12-14T00:23:20.413Z,36.20
2022-12-14T00:23:52.989Z,32.30
2022-12-14T00:24:25.513Z,31.10
2022-12-14T00:24:57.973Z,33.90
2022-12-14T00:25:30.514Z,33.70
2022-12-14T00:26:03.013Z,28.80
2022-12-14T00:26:35.542Z,25.00
2022-12-14T00:27:08.057Z,28.50
2022-12-14T00:27:40.589Z,30.20
2022-12-14T00:28:13.221Z,25.60
2022-12-14T00:28:45.690Z,29.50
2022-12-14T00:29:18.196Z,34.00
2022-12-14T00:29:50.683Z,28.60
2022-12-14T00:30:23.306Z,28.40
2022-12-14T00:30:58.355Z,25.00
2022-12-14T00:31:28.292Z,26.60
2022-12-14T00:32:00.795Z,29.00
2022-12-14T00:32:33.340Z,29.50
2022-12-14T00:33:05.790Z,27.30
2022-12-14T00:33:38.286Z,33.50
2022-12-14T00:34:10.738Z,31.50
2022-12-14T00:34:43.185Z,25.20
2022-12-14T00:35:15.765Z,30.50
2022-12-14T00:35:48.294Z,34.90
2022-12-14T00:36:20.805Z,37.80
2022-12-14T00:36:53.286Z,38.30
2022-12-14T00:37:25.720Z,32.50
2022-12-14T00:37:58.235Z,32.60
2022-12-14T00:38:30.865Z,31.60
2022-12-14T00:39:03.203Z,30.80
2022-12-14T00:39:35.749Z,27.10
2022-12-14T00:40:08.319Z,23.80
2022-12-14T00:40:40.809Z,28.80
2022-12-14T00:41:13.391Z,32.80
2022-12-14T00:41:45.911Z,33.10
2022-12-14T00:42:18.369Z,28.50
2022-12-14T00:42:50.810Z,31.10
2022-12-14T00:43:23.341Z,36.60
2022-12-14T00:43:55.799Z,31.90
2022-12-14T00:44:28.245Z,26.60
2022-12-14T00:45:00.742Z,30.80
2022-12-14T00:45:33.234Z,36.20
2022-12-14T00:46:05.768Z,30.30
2022-12-14T00:46:38.189Z,27.00
2022-12-14T00:47:11.263Z,31.00
2022-12-14T00:47:43.679Z,37.00
2022-12-14T00:48:16.202Z,33.00
2022-12-14T00:48:48.708Z,28.70
2022-12-14T00:49:21.257Z,28.60
2022-12-14T00:49:53.789Z,29.80
2022-12-14T00:50:26.360Z,26.80
2022-12-14T00:50:58.947Z,26.00
2022-12-14T00:51:31.413Z,25.60
2022-12-14T00:52:03.937Z,24.40
2022-12-14T00:52:36.374Z,24.80
2022-12-14T00:53:08.860Z,25.10
2022-12-14T00:53:41.440Z,27.20
2022-12-14T00:54:14.054Z,29.70
2022-12-14T00:54:46.578Z,33.40
2022-12-14T00:55:19.190Z,31.20
2022-12-14T00:55:51.848Z,27.40
2022-12-14T00:56:24.401Z,23.30
2022-12-14T00:56:56.881Z,25.40
2022-12-14T00:57:29.315Z,28.40
2022-12-14T00:58:01.765Z,30.70
2022-12-14T00:58:34.285Z,28.20
2022-12-14T00:59:06.718Z,24.90
2022-12-14T00:59:39.170Z,25.50
2022-12-14T01:00:11.608Z,27.80
2022-12-14T01:00:44.063Z,28.20
2022-12-14T01:01:16.681Z,28.70
2022-12-14T01:01:49.306Z,30.40
2022-12-14T01:02:21.800Z,26.10
2022-12-14T01:02:54.151Z,23.90
2022-12-14T01:03:27.117Z,22.00
2022-12-14T01:03:59.217Z,29.10
2022-12-14T01:04:32.880Z,29.50
2022-12-14T01:05:07.013Z,23.80
2022-12-14T01:05:39.493Z,29.00
2022-12-14T01:06:11.977Z,32.00
2022-12-14T01:06:44.500Z,27.80
2022-12-14T01:07:17.055Z,28.70
2022-12-14T01:07:49.548Z,29.70
2022-12-14T01:08:22.073Z,26.90
2022-12-14T01:08:54.568Z,26.30
2022-12-14T01:09:27.011Z,28.60
2022-12-14T01:09:59.493Z,27.40
2022-12-14T01:10:31.990Z,24.30
2022-12-14T01:11:04.682Z,26.20
2022-12-14T01:11:37.181Z,25.10
2022-12-14T01:12:09.662Z,26.90
2022-12-14T01:12:42.892Z,28.80
2022-12-14T01:13:15.472Z,28.00
2022-12-14T01:13:49.568Z,29.90
2022-12-14T01:14:20.502Z,28.30
2022-12-14T01:14:52.996Z,26.50
2022-12-14T01:15:25.465Z,28.50
2022-12-14T01:15:57.965Z,28.60
2022-12-14T01:16:30.456Z,29.60
2022-12-14T01:17:02.915Z,28.80
2022-12-14T01:17:35.505Z,30.00
2022-12-14T01:18:08.016Z,27.20
2022-12-14T01:18:40.624Z,23.10
2022-12-14T01:19:13.084Z,23.60
2022-12-14T01:19:45.521Z,25.10
2022-12-14T01:20:18.010Z,28.00
2022-12-14T01:20:50.486Z,27.10
2022-12-14T01:21:22.997Z,20.90
2022-12-14T01:21:55.508Z,19.00
2022-12-14T01:22:28.002Z,24.90
2022-12-14T01:23:00.510Z,27.10
2022-12-14T01:23:32.996Z,29.20
2022-12-14T01:24:05.518Z,26.50
2022-12-14T01:24:38.020Z,24.20
2022-12-14T01:25:10.565Z,29.20
2022-12-14T01:25:43.085Z,35.60
2022-12-14T01:26:15.557Z,31.40
2022-12-14T01:26:48.033Z,20.90
2022-12-14T01:27:20.546Z,20.10
2022-12-14T01:27:53.045Z,27.40
2022-12-14T01:28:25.559Z,26.20
2022-12-14T01:28:57.995Z,27.50
2022-12-14T01:29:30.491Z,25.70
2022-12-14T01:30:02.999Z,26.40
2022-12-14T01:30:35.512Z,23.60
2022-12-14T01:31:08.028Z,19.10
2022-12-14T01:31:40.515Z,23.90
2022-12-14T01:32:13.000Z,27.30
2022-12-14T01:32:45.517Z,30.00
2022-12-14T01:33:18.035Z,28.40
2022-12-14T01:33:50.572Z,31.10
2022-12-14T01:34:23.137Z,30.70
2022-12-14T01:34:55.635Z,22.60
2022-12-14T01:35:28.092Z,26.90
2022-12-14T01:36:00.572Z,29.60
2022-12-14T01:36:33.022Z,26.80
2022-12-14T01:37:05.484Z,28.60
2022-12-14T01:37:37.953Z,27.40
2022-12-14T01:38:10.433Z,20.70
2022-12-14T01:38:42.911Z,23.60
2022-12-14T01:39:15.478Z,25.80
2022-12-14T01:39:48.044Z,27.30
2022-12-14T01:40:20.571Z,24.80
2022-12-14T01:40:53.118Z,24.20
2022-12-14T01:41:25.635Z,25.60
2022-12-14T01:41:58.163Z,24.60
2022-12-14T01:42:30.637Z,23.00
2022-12-14T01:43:03.137Z,20.00
2022-12-14T01:43:35.703Z,21.30
2022-12-14T01:44:08.134Z,19.90
2022-12-14T01:44:40.592Z,21.70
2022-12-14T01:45:13.031Z,23.20
2022-12-14T01:45:45.466Z,26.70
2022-12-14T01:46:18.035Z,27.60
2022-12-14T01:46:50.537Z,25.80
2022-12-14T01:47:22.983Z,28.30
2022-12-14T01:47:55.426Z,28.10
2022-12-14T01:48:27.876Z,22.00
2022-12-14T01:49:00.428Z,23.70
2022-12-14T01:49:32.912Z,24.80
2022-12-14T01:50:05.351Z,25.30
2022-12-14T01:50:37.811Z,22.60
2022-12-14T01:51:10.261Z,25.50
2022-12-14T01:51:42.712Z,24.20
2022-12-14T01:52:15.303Z,22.20
2022-12-14T01:52:47.848Z,21.80
2022-12-14T01:53:20.284Z,22.30
2022-12-14T01:53:52.726Z,24.10
2022-12-14T01:54:25.171Z,26.20
2022-12-14T01:54:57.704Z,23.10
2022-12-14T01:55:30.174Z,21.40
2022-12-14T01:56:02.623Z,21.20
2022-12-14T01:56:35.098Z,18.30
2022-12-14T01:57:07.631Z,26.10
2022-12-14T01:57:40.205Z,27.70
2022-12-14T01:58:12.718Z,22.70
2022-12-14T01:58:45.237Z,20.90
2022-12-14T01:59:17.759Z,21.50
2022-12-14T01:59:50.270Z,22.00
2022-12-14T02:00:22.878Z,26.30
2022-12-14T02:00:55.377Z,26.70
2022-12-14T02:01:27.876Z,18.00
2022-12-14T02:02:00.327Z,20.60
2022-12-14T02:02:32.835Z,23.30
2022-12-14T02:03:05.290Z,26.40
2022-12-14T02:03:37.755Z,27.10
2022-12-14T02:04:10.224Z,22.40
2022-12-14T02:04:42.741Z,21.20
2022-12-14T02:05:15.231Z,21.60
2022-12-14T02:05:47.717Z,24.60
2022-12-14T02:06:20.364Z,27.70
2022-12-14T02:06:56.418Z,24.20
2022-12-14T02:07:25.273Z,23.70
2022-12-14T02:07:57.726Z,25.30
2022-12-14T02:08:30.180Z,26.80
2022-12-14T02:09:02.645Z,22.30
2022-12-14T02:09:35.104Z,26.70
2022-12-14T02:10:07.584Z,24.30
2022-12-14T02:10:40.095Z,22.50
2022-12-14T02:11:12.626Z,23.80
2022-12-14T02:11:45.083Z,22.40
2022-12-14T02:12:17.702Z,20.20
2022-12-14T02:12:50.206Z,21.20
2022-12-14T02:13:22.742Z,25.30
2022-12-14T02:13:55.330Z,22.90
2022-12-14T02:14:27.738Z,21.70
2022-12-14T02:15:00.230Z,24.40
2022-12-14T02:15:32.707Z,20.30
2022-12-14T02:16:05.297Z,17.60
2022-12-14T02:16:37.897Z,22.60
2022-12-14T02:17:10.247Z,24.60
2022-12-14T02:17:42.693Z,24.40
2022-12-14T02:18:15.187Z,23.10
2022-12-14T02:18:47.609Z,21.50
2022-12-14T02:19:20.120Z,22.70
2022-12-14T02:19:52.607Z,27.10
2022-12-14T02:20:25.064Z,24.70
2022-12-14T02:20:57.582Z,24.20
2022-12-14T02:21:30.053Z,25.80
2022-12-14T02:22:02.478Z,20.30
2022-12-14T02:22:34.947Z,21.60
2022-12-14T02:23:07.399Z,25.50
2022-12-14T02:23:39.911Z,21.90
2022-12-14T02:24:12.462Z,20.50
2022-12-14T02:24:44.882Z,22.80
2022-12-14T02:25:17.558Z,27.60
2022-12-14T02:25:50.106Z,26.70
2022-12-14T02:26:22.642Z,24.80
2022-12-14T02:26:55.130Z,20.50
2022-12-14T02:27:27.595Z,20.70
2022-12-14T02:28:00.038Z,18.50
2022-12-14T02:28:32.480Z,19.70
2022-12-14T02:29:04.943Z,19.90
2022-12-14T02:29:37.411Z,21.40
2022-12-14T02:30:09.907Z,22.30
2022-12-14T02:30:42.395Z,25.80
2022-12-14T02:31:14.888Z,25.20
2022-12-14T02:31:48.879Z,23.90
2022-12-14T02:32:19.960Z,25.00
2022-12-14T02:32:52.425Z,23.80
2022-12-14T02:33:25.184Z,22.00
2022-12-14T02:33:57.494Z,22.70
2022-12-14T02:34:30.144Z,22.80
2022-12-14T02:35:02.650Z,24.70
2022-12-14T02:35:35.185Z,22.80
2022-12-14T02:36:07.710Z,25.20
2022-12-14T02:36:40.238Z,22.40
2022-12-14T02:37:12.710Z,21.50
2022-12-14T02:37:45.122Z,20.80
2022-12-14T02:38:17.610Z,20.50
2022-12-14T02:38:50.086Z,25.40
2022-12-14T02:39:22.554Z,22.70
2022-12-14T02:39:55.027Z,22.10
2022-12-14T02:40:27.461Z,22.50
2022-12-14T02:40:59.890Z,22.90
2022-12-14T02:41:32.463Z,27.50
2022-12-14T02:42:05.026Z,29.80
2022-12-14T02:42:37.579Z,24.50
2022-12-14T02:43:10.100Z,24.50
2022-12-14T02:43:42.675Z,25.40
2022-12-14T02:44:15.147Z,21.40
2022-12-14T02:44:47.663Z,21.80
2022-12-14T02:45:20.161Z,21.50
2022-12-14T02:45:52.664Z,20.30
2022-12-14T02:46:25.206Z,20.20
2022-12-14T02:46:57.686Z,23.00
2022-12-14T02:47:30.163Z,22.00
2022-12-14T02:48:02.640Z,18.20
2022-12-14T02:48:35.192Z,19.20
2022-12-14T02:49:07.655Z,21.90
2022-12-14T02:49:40.111Z,22.70
2022-12-14T02:50:12.578Z,21.20
2022-12-14T02:50:45.092Z,22.20
2022-12-14T02:51:17.571Z,20.60
2022-12-14T02:51:50.031Z,18.60
2022-12-14T02:52:22.575Z,20.40
2022-12-14T02:52:55.008Z,19.30
2022-12-14T02:53:27.853Z,21.70
2022-12-14T02:53:59.977Z,20.50
2022-12-14T02:54:32.606Z,21.20
2022-12-14T02:55:05.106Z,20.90
2022-12-14T02:55:37.486Z,17.30
2022-12-14T02:56:09.931Z,20.10
2022-12-14T02:56:42.451Z,21.90
2022-12-14T02:57:14.860Z,19.10
2022-12-14T02:57:47.324Z,19.90
2022-12-14T02:58:19.813Z,20.10
2022-12-14T02:58:52.312Z,17.30
2022-12-14T02:59:24.850Z,21.20
2022-12-14T02:59:57.337Z,25.40
2022-12-14T03:00:29.860Z,26.70
2022-12-14T03:01:02.358Z,20.20
2022-12-14T03:01:35.070Z,19.60
2022-12-14T03:02:07.519Z,22.60
2022-12-14T03:02:40.058Z,17.30
2022-12-14T03:03:12.476Z,18.10
2022-12-14T03:03:44.972Z,19.60
2022-12-14T03:04:17.410Z,20.20
2022-12-14T03:04:49.910Z,24.50
2022-12-14T03:05:22.388Z,21.90
2022-12-14T03:05:54.835Z,28.20
2022-12-14T03:06:27.308Z,25.10
2022-12-14T03:06:59.795Z,24.10
2022-12-14T03:07:32.316Z,24.80
2022-12-14T03:08:04.883Z,22.90
2022-12-14T03:08:37.333Z,21.90
2022-12-14T03:09:09.771Z,23.80
2022-12-14T03:09:42.300Z,20.90
2022-12-14T03:10:14.765Z,17.40
2022-12-14T03:10:47.270Z,17.80
2022-12-14T03:11:19.783Z,18.30
2022-12-14T03:11:52.259Z,20.60
2022-12-14T03:12:24.770Z,16.30
2022-12-14T03:12:57.299Z,21.50
2022-12-14T03:13:30.115Z,25.70
2022-12-14T03:14:02.368Z,25.90
2022-12-14T03:14:34.931Z,23.70
2022-12-14T03:15:07.460Z,20.20
2022-12-14T03:15:39.951Z,20.30
2022-12-14T03:16:12.494Z,18.10
2022-12-14T03:16:44.899Z,20.30
2022-12-14T03:17:19.677Z,19.50
2022-12-14T03:17:49.920Z,16.90
2022-12-14T03:18:22.453Z,18.50
2022-12-14T03:18:54.929Z,20.80
2022-12-14T03:19:27.396Z,28.00
2022-12-14T03:19:59.869Z,29.50
2022-12-14T03:20:32.373Z,19.60
2022-12-14T03:21:04.850Z,20.90
2022-12-14T03:21:37.297Z,22.40
2022-12-14T03:22:09.726Z,22.90
2022-12-14T03:22:42.297Z,19.40
2022-12-14T03:23:14.778Z,18.10
2022-12-14T03:23:47.342Z,21.70
2022-12-14T03:24:19.903Z,21.60
2022-12-14T03:24:52.465Z,18.40
2022-12-14T03:25:24.980Z,20.10
2022-12-14T03:25:57.472Z,19.30
2022-12-14T03:26:30.017Z,20.60
2022-12-14T03:27:02.530Z,20.60
2022-12-14T03:27:35.049Z,22.10
2022-12-14T03:28:07.554Z,19.90
2022-12-14T03:28:40.046Z,21.60
2022-12-14T03:29:12.498Z,22.80
2022-12-14T03:29:44.983Z,20.90
2022-12-14T03:30:31.729Z,19.80
2022-12-14T03:31:04.854Z,20.70
2022-12-14T03:31:22.390Z,20.50
2022-12-14T03:31:54.875Z,20.30
2022-12-14T03:32:27.332Z,18.10
2022-12-14T03:32:59.864Z,18.30
2022-12-14T03:33:32.356Z,18.30
2022-12-14T03:34:04.820Z,15.90
2022-12-14T03:34:37.286Z,15.50
2022-12-14T03:35:09.752Z,19.30
2022-12-14T03:35:42.268Z,20.30
2022-12-14T03:36:14.730Z,21.00
2022-12-14T03:36:47.264Z,22.10
2022-12-14T03:37:19.715Z,20.80
2022-12-14T03:37:53.438Z,19.90
2022-12-14T03:38:24.776Z,17.00
2022-12-14T03:38:57.237Z,19.90
2022-12-14T03:39:29.735Z,21.00
2022-12-14T03:40:02.243Z,20.30
2022-12-14T03:40:34.713Z,19.50
2022-12-14T03:41:07.192Z,16.60
2022-12-14T03:41:39.661Z,20.30
2022-12-14T03:42:12.091Z,21.10
2022-12-14T03:42:49.345Z,24.20
2022-12-14T03:43:17.449Z,23.30
2022-12-14T03:43:50.128Z,19.20
2022-12-14T03:44:22.508Z,22.20
2022-12-14T03:44:54.981Z,19.10
2022-12-14T03:45:27.458Z,20.30
2022-12-14T03:45:59.912Z,19.10
2022-12-14T03:46:32.385Z,19.20
2022-12-14T03:47:04.851Z,17.40
2022-12-14T03:47:37.382Z,17.50
2022-12-14T03:48:09.881Z,21.60
2022-12-14T03:48:42.544Z,24.30
2022-12-14T03:49:15.108Z,26.40
2022-12-14T03:49:49.061Z,21.40
2022-12-14T03:50:20.202Z,18.70
2022-12-14T03:50:52.706Z,19.70
2022-12-14T03:51:25.344Z,20.00
2022-12-14T03:51:57.863Z,19.90
2022-12-14T03:52:30.384Z,21.10
2022-12-14T03:53:02.994Z,19.10
2022-12-14T03:53:35.578Z,17.90
2022-12-14T03:54:08.062Z,19.20
2022-12-14T03:54:40.570Z,20.10
2022-12-14T03:55:13.019Z,18.30
2022-12-14T03:55:45.464Z,19.90
2022-12-14T03:56:17.921Z,20.20
2022-12-14T03:56:53.161Z,18.40
2022-12-14T03:57:22.822Z,18.40
2022-12-14T03:57:55.331Z,15.20
2022-12-14T03:58:27.827Z,16.20
2022-12-14T03:59:00.336Z,17.00
2022-12-14T03:59:32.800Z,17.50
2022-12-14T04:00:05.361Z,18.50
2022-12-14T04:00:37.897Z,18.80
2022-12-14T04:01:10.409Z,15.70
2022-12-14T04:01:43.054Z,15.60
2022-12-14T04:02:15.643Z,17.60
2022-12-14T04:02:48.215Z,17.80
2022-12-14T04:03:20.667Z,15.50
2022-12-14T04:03:53.131Z,15.30
2022-12-14T04:04:25.680Z,16.40
2022-12-14T04:04:58.201Z,17.90
2022-12-14T04:05:30.697Z,17.20
2022-12-14T04:06:03.193Z,17.10
2022-12-14T04:06:35.830Z,19.80
2022-12-14T04:07:08.371Z,21.20
2022-12-14T04:07:40.919Z,18.10
2022-12-14T04:08:13.439Z,16.90
2022-12-14T04:08:45.914Z,16.90
2022-12-14T04:09:18.362Z,14.80
2022-12-14T04:09:50.921Z,14.80
2022-12-14T04:10:23.473Z,14.00
2022-12-14T04:10:55.975Z,14.70
2022-12-14T04:11:28.510Z,16.50
2022-12-14T04:12:00.943Z,17.50
2022-12-14T04:12:33.462Z,15.20
2022-12-14T04:13:05.912Z,16.00
2022-12-14T04:13:38.375Z,18.10
2022-12-14T04:14:10.860Z,19.70
2022-12-14T04:14:43.436Z,20.10
2022-12-14T04:15:15.964Z,19.40
2022-12-14T04:15:48.552Z,18.40
2022-12-14T04:16:21.030Z,19.30
2022-12-14T04:16:53.577Z,17.10
2022-12-14T04:17:26.008Z,18.00
2022-12-14T04:17:58.553Z,17.60
2022-12-14T04:18:31.062Z,14.00
2022-12-14T04:19:03.544Z,16.40
2022-12-14T04:19:36.031Z,18.40
2022-12-14T04:20:08.476Z,19.60
2022-12-14T04:20:40.929Z,19.30
2022-12-14T04:21:13.361Z,16.00
2022-12-14T04:21:45.825Z,14.10
2022-12-14T04:22:18.288Z,15.00
2022-12-14T04:22:50.841Z,16.50
2022-12-14T04:23:23.424Z,18.20
2022-12-14T04:23:55.873Z,16.30
2022-12-14T04:24:28.342Z,17.20
2022-12-14T04:25:00.827Z,17.30
2022-12-14T04:25:33.385Z,17.20
2022-12-14T04:26:05.896Z,17.40
2022-12-14T04:26:38.472Z,15.10
2022-12-14T04:27:10.962Z,17.70
2022-12-14T04:27:43.396Z,17.50
2022-12-14T04:28:15.934Z,15.50
2022-12-14T04:28:48.555Z,17.20
2022-12-14T04:29:21.095Z,19.20
2022-12-14T04:29:53.554Z,20.90
2022-12-14T04:30:26.103Z,17.50
2022-12-14T04:30:58.581Z,15.40
2022-12-14T04:31:31.137Z,15.70
2022-12-14T04:32:03.607Z,17.60
2022-12-14T04:32:36.126Z,20.10
2022-12-14T04:33:08.592Z,20.50
2022-12-14T04:33:41.103Z,18.80
2022-12-14T04:34:13.631Z,18.10
2022-12-14T04:34:46.082Z,16.70
2022-12-14T04:35:18.676Z,18.40
2022-12-14T04:35:51.138Z,15.60
2022-12-14T04:36:23.632Z,16.40
2022-12-14T04:36:56.217Z,20.30
2022-12-14T04:37:28.722Z,18.50
2022-12-14T04:38:01.168Z,18.40
2022-12-14T04:38:33.640Z,19.60
2022-12-14T04:39:06.157Z,17.30
2022-12-14T04:39:38.649Z,14.50
2022-12-14T04:40:11.124Z,16.10
2022-12-14T04:40:43.564Z,20.10
2022-12-14T04:41:16.063Z,18.10
2022-12-14T04:41:48.501Z,16.50
2022-12-14T04:42:20.994Z,17.10
2022-12-14T04:42:53.505Z,16.60
2022-12-14T04:43:26.241Z,16.70
2022-12-14T04:43:58.457Z,15.60
2022-12-14T04:44:31.010Z,12.20
2022-12-14T04:45:03.482Z,15.80
2022-12-14T04:45:35.962Z,17.80
2022-12-14T04:46:08.549Z,17.90
2022-12-14T04:46:41.064Z,19.70
2022-12-14T04:47:13.461Z,16.60
2022-12-14T04:47:45.957Z,17.10
2022-12-14T04:48:18.411Z,19.00
2022-12-14T04:48:50.943Z,17.90
2022-12-14T04:49:24.043Z,16.50
2022-12-14T04:49:56.559Z,18.80
2022-12-14T04:50:29.039Z,19.00
2022-12-14T04:51:01.555Z,16.30
2022-12-14T04:51:34.042Z,17.40
2022-12-14T04:52:06.484Z,24.50
2022-12-14T04:52:38.926Z,21.10
2022-12-14T04:53:11.388Z,16.60
2022-12-14T04:53:43.890Z,17.90
2022-12-14T04:54:16.345Z,16.70
2022-12-14T04:54:48.812Z,17.80
2022-12-14T04:55:21.261Z,13.20
2022-12-14T04:55:53.700Z,13.60
2022-12-14T04:56:26.276Z,15.80
2022-12-14T04:56:58.777Z,20.80
2022-12-14T04:57:31.253Z,19.70
2022-12-14T04:58:03.763Z,17.10
2022-12-14T04:58:36.268Z,18.20
2022-12-14T04:59:08.761Z,17.80
2022-12-14T04:59:41.232Z,15.40
2022-12-14T05:00:13.697Z,17.60
2022-12-14T05:00:46.168Z,15.30
2022-12-14T05:01:18.770Z,14.90
2022-12-14T05:01:51.299Z,18.70
2022-12-14T05:02:23.867Z,24.10
2022-12-14T05:02:56.293Z,21.60
2022-12-14T05:03:29.083Z,17.90
2022-12-14T05:04:02.242Z,18.80
2022-12-14T05:04:34.708Z,20.50
2022-12-14T05:05:07.144Z,18.00
2022-12-14T05:05:39.567Z,16.70
2022-12-14T05:06:12.103Z,16.80
2022-12-14T05:06:44.622Z,14.80
2022-12-14T05:07:17.156Z,11.80
2022-12-14T05:07:49.609Z,13.40
2022-12-14T05:08:22.079Z,16.00
2022-12-14T05:08:54.569Z,18.70
2022-12-14T05:09:27.063Z,19.30
2022-12-14T05:09:59.580Z,16.50
2022-12-14T05:10:32.098Z,18.40
2022-12-14T05:11:30.147Z,21.00
2022-12-14T05:11:54.023Z,19.80
2022-12-14T05:12:09.659Z,16.50
2022-12-14T05:12:42.104Z,19.40
2022-12-14T05:13:14.644Z,18.40
2022-12-14T05:13:49.024Z,20.20
2022-12-14T05:14:19.671Z,20.10
2022-12-14T05:14:53.117Z,18.10
2022-12-14T05:15:25.708Z,18.20
2022-12-14T05:15:58.197Z,21.10
2022-12-14T05:16:30.708Z,18.60
2022-12-14T05:17:08.109Z,15.80
2022-12-14T05:17:35.603Z,14.30
2022-12-14T05:18:08.094Z,16.10
2022-12-14T05:18:40.584Z,16.80
2022-12-14T05:19:13.092Z,16.40
2022-12-14T05:19:45.616Z,16.60
2022-12-14T05:20:18.132Z,16.70
2022-12-14T05:20:50.680Z,16.40
2022-12-14T05:21:30.240Z,17.80
2022-12-14T05:22:02.713Z,15.40
2022-12-14T05:22:35.182Z,17.60
2022-12-14T05:23:07.693Z,15.70
2022-12-14T05:23:40.250Z,13.90
2022-12-14T05:24:12.854Z,17.20
2022-12-14T05:24:45.263Z,20.60
2022-12-14T05:25:17.761Z,18.10
2022-12-14T05:25:50.366Z,15.50
2022-12-14T05:26:22.910Z,17.10
2022-12-14T05:26:55.429Z,15.50
2022-12-14T05:27:27.945Z,14.10
2022-12-14T05:28:00.376Z,15.30
2022-12-14T05:28:32.860Z,16.90
2022-12-14T05:29:05.396Z,15.10
2022-12-14T05:29:37.946Z,18.80
2022-12-14T05:30:10.536Z,19.80
2022-12-14T05:30:43.176Z,17.90
2022-12-14T05:31:15.626Z,17.00
2022-12-14T05:31:49.364Z,15.80
2022-12-14T05:32:20.588Z,17.00
2022-12-14T05:32:53.080Z,16.70
2022-12-14T05:33:25.860Z,12.90
2022-12-14T05:33:58.117Z,12.80
2022-12-14T05:34:30.687Z,12.20
2022-12-14T05:35:03.154Z,14.70
2022-12-14T05:35:35.779Z,17.50
2022-12-14T05:36:08.266Z,14.80
2022-12-14T05:36:40.776Z,13.50
2022-12-14T05:37:17.927Z,15.00
2022-12-14T05:37:45.737Z,15.40
2022-12-14T05:38:18.177Z,16.40
2022-12-14T05:38:50.724Z,14.60
2022-12-14T05:39:23.306Z,11.80
2022-12-14T05:39:55.804Z,15.40
2022-12-14T05:40:28.285Z,15.80
2022-12-14T05:41:00.744Z,16.20
2022-12-14T05:41:33.272Z,16.40
2022-12-14T05:42:05.808Z,13.80
2022-12-14T05:42:42.748Z,11.20
2022-12-14T05:43:10.770Z,16.40
2022-12-14T05:43:43.220Z,16.00
2022-12-14T05:44:15.664Z,17.90
2022-12-14T05:44:48.110Z,22.90
2022-12-14T05:45:20.598Z,18.80
2022-12-14T05:45:53.202Z,12.40
2022-12-14T05:46:25.589Z,11.80
2022-12-14T05:46:57.985Z,15.20
2022-12-14T05:47:30.463Z,17.30
2022-12-14T05:48:02.987Z,18.40
2022-12-14T05:48:35.572Z,14.80
2022-12-14T05:49:08.051Z,14.80
2022-12-14T05:49:40.541Z,18.00
2022-12-14T05:50:13.046Z,17.30
2022-12-14T05:50:45.504Z,16.70
2022-12-14T05:51:18.057Z,17.60
2022-12-14T05:51:50.574Z,13.80
2022-12-14T05:52:23.104Z,15.10
2022-12-14T05:52:55.594Z,15.90
2022-12-14T05:53:28.468Z,17.80
2022-12-14T05:54:00.574Z,17.80
2022-12-14T05:54:33.124Z,13.00
2022-12-14T05:55:05.621Z,15.10
2022-12-14T05:55:38.210Z,15.30
2022-12-14T05:56:10.685Z,16.10
2022-12-14T05:56:43.186Z,18.90
2022-12-14T05:57:15.711Z,16.80
2022-12-14T05:57:48.188Z,15.10
2022-12-14T05:58:20.794Z,12.60
2022-12-14T05:58:53.313Z,15.10
2022-12-14T05:59:25.850Z,15.10
2022-12-14T05:59:58.377Z,14.90
2022-12-14T06:00:30.867Z,16.80
2022-12-14T06:01:03.462Z,17.00
2022-12-14T06:01:36.089Z,14.40
2022-12-14T06:02:08.644Z,15.80
2022-12-14T06:02:41.063Z,14.80
2022-12-14T06:03:13.571Z,14.50
2022-12-14T06:03:46.127Z,16.00
2022-12-14T06:04:18.716Z,16.20
2022-12-14T06:04:51.218Z,18.00
2022-12-14T06:05:23.645Z,17.20
2022-12-14T06:05:56.162Z,19.10
2022-12-14T06:06:28.683Z,21.00
2022-12-14T06:07:01.165Z,16.80
2022-12-14T06:07:33.640Z,14.20
2022-12-14T06:08:06.204Z,14.50
2022-12-14T06:08:38.700Z,16.00
2022-12-14T06:09:12.233Z,15.10
2022-12-14T06:09:44.780Z,16.70
2022-12-14T06:10:17.370Z,19.40
2022-12-14T06:10:50.088Z,20.40
2022-12-14T06:11:22.576Z,16.80
2022-12-14T06:11:55.052Z,15.40
2022-12-14T06:12:27.621Z,13.00
2022-12-14T06:13:00.158Z,15.80
2022-12-14T06:13:32.639Z,17.60
2022-12-14T06:14:05.091Z,16.20
2022-12-14T06:14:37.598Z,14.60
2022-12-14T06:15:10.099Z,15.60
2022-12-14T06:15:42.618Z,15.40
2022-12-14T06:16:15.152Z,16.60
2022-12-14T06:16:47.590Z,17.30
2022-12-14T06:17:20.115Z,17.50
2022-12-14T06:17:52.628Z,17.50
2022-12-14T06:18:25.149Z,14.10
2022-12-14T06:18:57.676Z,13.40
2022-12-14T06:19:30.198Z,16.10
2022-12-14T06:20:03.572Z,14.70
2022-12-14T06:20:36.086Z,16.10
2022-12-14T06:21:08.617Z,18.50
2022-12-14T06:21:41.129Z,16.60
2022-12-14T06:22:13.603Z,15.30
2022-12-14T06:22:47.735Z,14.90
2022-12-14T06:23:18.570Z,15.80
2022-12-14T06:23:51.039Z,15.50
2022-12-14T06:24:23.865Z,17.60
2022-12-14T06:24:57.239Z,18.50
2022-12-14T06:25:29.728Z,16.80
2022-12-14T06:26:02.308Z,15.50
2022-12-14T06:26:34.780Z,17.10
2022-12-14T06:27:07.237Z,16.00
2022-12-14T06:27:39.698Z,13.80
2022-12-14T06:28:12.188Z,13.90
2022-12-14T06:28:44.654Z,12.90
2022-12-14T06:29:17.183Z,15.70
2022-12-14T06:29:49.710Z,16.40
2022-12-14T06:30:22.293Z,18.50
2022-12-14T06:30:55.237Z,15.70
2022-12-14T06:31:27.718Z,13.90
2022-12-14T06:32:00.126Z,14.00
2022-12-14T06:32:32.697Z,14.90
2022-12-14T06:33:05.231Z,14.70
2022-12-14T06:33:37.773Z,13.60
2022-12-14T06:34:10.215Z,13.10
2022-12-14T06:34:42.711Z,13.20
2022-12-14T06:35:15.162Z,15.10
2022-12-14T06:35:47.652Z,15.60
2022-12-14T06:36:20.093Z,15.50
2022-12-14T06:36:52.563Z,13.70
2022-12-14T06:37:25.029Z,14.20
2022-12-14T06:37:57.501Z,16.10
2022-12-14T06:38:29.989Z,14.40
2022-12-14T06:39:02.530Z,16.40
2022-12-14T06:39:35.049Z,15.60
2022-12-14T06:40:07.529Z,16.70
2022-12-14T06:40:39.983Z,17.00
2022-12-14T06:41:12.466Z,18.80
2022-12-14T06:41:44.918Z,19.40
2022-12-14T06:42:17.425Z,14.50
2022-12-14T06:42:49.930Z,13.30
2022-12-14T06:43:22.449Z,14.80
2022-12-14T06:43:54.970Z,16.50
2022-12-14T06:44:27.473Z,16.90
2022-12-14T06:44:59.991Z,17.60
2022-12-14T06:45:32.559Z,14.30
2022-12-14T06:46:07.550Z,13.90
2022-12-14T06:46:37.631Z,16.30
2022-12-14T06:47:10.056Z,16.10
2022-12-14T06:47:42.502Z,13.40
2022-12-14T06:48:14.989Z,14.00
2022-12-14T06:48:47.496Z,13.70
2022-12-14T06:49:19.951Z,13.90
2022-12-14T06:49:52.440Z,16.00
2022-12-14T06:50:24.902Z,14.20
2022-12-14T06:50:57.357Z,14.00
2022-12-14T06:51:29.876Z,19.30
2022-12-14T06:52:02.388Z,14.70
2022-12-14T06:52:34.899Z,14.90
2022-12-14T06:53:07.392Z,14.80
2022-12-14T06:53:39.902Z,19.00
2022-12-14T06:54:12.406Z,17.90
2022-12-14T06:54:44.910Z,13.00
2022-12-14T06:55:17.361Z,14.70
2022-12-14T06:55:49.809Z,15.40
2022-12-14T06:56:22.345Z,14.20
2022-12-14T06:56:54.865Z,14.80
2022-12-14T06:57:27.371Z,16.00
2022-12-14T06:57:59.867Z,18.40
2022-12-14T06:58:32.677Z,18.10
2022-12-14T06:59:04.887Z,14.50